Time;durP1;ratioP1;P1;durP2;ratioP2;P2;SDS_P1;SDS_P2;PMS_P1;PMS_P2;Temp;Humidity;BMP_temperature;BMP_pressure;BME280_temperature;BME280_humidity;BME280_pressure;Samples;Min_cycle;Max_cycle;Signal;HPM_P1;HPM_P2
2023/05/05 00:01:01;;;;;;;10.35;7.50;;;;;;;-146.27;77.94;81998.50;5028968;28;20407;-70
2023/05/05 00:03:28;;;;;;;10.23;6.93;;;;;;;-146.27;78.35;82050.75;5043644;28;20018;-67
2023/05/05 00:05:54;;;;;;;10.40;5.30;;;;;;;-146.27;78.39;82056.75;5032499;28;20037;-69
2023/05/05 00:08:20;;;;;;;6.93;3.97;;;;;;;-146.27;78.03;82046.72;5031981;28;20036;-68
2023/05/05 00:10:50;;;;;;;7.90;4.18;;;;;;;-146.27;77.56;82054.75;5032859;28;20021;-69
2023/05/05 00:13:17;;;;;;;4.55;3.65;;;;;;;-146.27;76.87;82127.06;5030654;28;20412;-69
2023/05/05 00:15:43;;;;;;;4.95;3.28;;;;;;;-146.27;77.23;82084.88;5031318;28;20104;-69
2023/05/05 00:18:09;;;;;;;8.77;3.42;;;;;;;-146.27;77.18;82050.75;5027228;28;20108;-68
2023/05/05 00:20:35;;;;;;;4.82;2.90;;;;;;;-146.27;77.29;82111.00;5032570;28;20061;-68
2023/05/05 00:23:01;;;;;;;4.72;2.90;;;;;;;-146.27;77.11;82115.00;5026636;28;20064;-68
2023/05/05 00:25:26;;;;;;;5.93;3.00;;;;;;;-146.27;77.16;82082.88;5030726;28;20040;-70
2023/05/05 00:27:51;;;;;;;4.82;2.95;;;;;;;-146.27;77.06;82129.06;5029003;28;20404;-69
2023/05/05 00:30:17;;;;;;;5.05;2.25;;;;;;;-146.27;76.92;82123.06;5030964;28;20032;-69
2023/05/05 00:32:42;;;;;;;4.20;2.22;;;;;;;-146.27;76.44;82135.09;5030624;28;20029;-69
2023/05/05 00:35:08;;;;;;;6.32;1.92;;;;;;;-146.27;75.89;82102.97;5030919;28;20072;-68
2023/05/05 00:37:33;;;;;;;6.72;2.47;;;;;;;-146.27;75.78;82082.88;5030431;28;20037;-69
2023/05/05 00:39:59;;;;;;;3.13;1.73;;;;;;;-146.27;75.10;82123.06;5029811;28;20061;-70
2023/05/05 00:42:25;;;;;;;7.38;2.05;;;;;;;-146.27;74.16;82123.06;5015857;28;20534;-69
2023/05/05 00:44:51;;;;;;;2.53;1.73;;;;;;;-146.27;74.14;82094.94;5030733;28;20342;-69
2023/05/05 00:47:16;;;;;;;5.90;1.90;;;;;;;-146.27;73.96;82119.03;5030615;28;20037;-69
2023/05/05 00:49:42;;;;;;;3.90;1.70;;;;;;;-146.27;73.96;82106.97;5029607;28;20022;-70
2023/05/05 00:52:08;;;;;;;3.10;2.05;;;;;;;-146.27;75.15;82106.97;5030824;28;20036;-68
2023/05/05 00:54:35;;;;;;;8.43;2.30;;;;;;;-146.27;76.71;82135.09;5029941;28;20021;-68
2023/05/05 00:57:03;;;;;;;8.85;2.15;;;;;;;-146.27;76.49;82151.16;5029526;28;20052;-69
2023/05/05 00:59:30;;;;;;;4.25;1.95;;;;;;;-146.27;78.11;82111.00;5045183;28;20346;-68
2023/05/05 01:01:55;;;;;;;7.43;2.25;;;;;;;-146.27;78.81;82139.13;5028924;28;20603;-70
2023/05/05 01:04:21;;;;;;;5.05;1.52;;;;;;;-146.27;78.80;82197.38;5030591;28;20029;-68
2023/05/05 01:07:05;;;;;;;3.40;1.52;;;;;;;-146.27;82.43;82185.31;5029130;28;20535;-68
2023/05/05 01:09:37;;;;;;;;;;;;;;;-146.27;82.07;82231.53;5030773;28;20116;-68
2023/05/05 01:12:08;;;;;;;4.53;1.85;;;;;;;-146.27;84.15;82251.59;5030278;28;19920;-70
2023/05/05 01:14:42;;;;;;;3.22;1.55;;;;;;;-146.27;85.66;82229.50;5029399;28;20523;-70
2023/05/05 01:17:17;;;;;;;;;;;;;;;-146.27;85.73;82203.41;5031222;28;20037;-70
2023/05/05 01:20:01;;;;;;;3.78;1.77;;;;;;;-146.27;86.77;82243.56;5030077;28;19917;-69
2023/05/05 01:22:37;;;;;;;3.33;1.60;;;;;;;-146.27;87.72;82277.72;5029393;28;20384;-69
2023/05/05 01:25:24;;;;;;;5.43;1.70;;;;;;;-146.27;88.54;82267.69;5029695;28;20030;-69
2023/05/05 01:28:17;;;;;;;4.72;1.70;;;;;;;-146.27;88.71;82257.63;5029663;28;20029;-70
2023/05/05 01:31:34;;;;;;;3.83;2.10;;;;;;;-146.27;88.73;82315.88;5030210;28;20100;-71
2023/05/05 01:34:05;;;;;;;5.25;2.17;;;;;;;-146.27;86.79;82285.75;4995455;28;20143;-70
2023/05/05 01:36:41;;;;;;;4.97;1.90;;;;;;;-146.27;88.13;82321.91;5029340;28;20106;-69
2023/05/05 01:39:11;;;;;;;2.40;1.90;;;;;;;-146.27;90.52;82323.91;5028851;28;20040;-69
2023/05/05 01:41:43;;;;;;;4.35;1.77;;;;;;;-146.27;89.21;82360.09;5029986;28;20104;-69
2023/05/05 01:44:10;;;;;;;2.22;1.67;;;;;;;-146.27;87.25;82388.22;5030827;28;20120;-68
2023/05/05 01:46:36;;;;;;;7.15;1.73;;;;;;;-146.27;86.45;82410.31;5030494;28;20103;-68
2023/05/05 01:49:02;;;;;;;7.88;1.75;;;;;;;-146.27;85.25;82366.09;5030648;28;20025;-69
2023/05/05 01:51:28;;;;;;;3.53;1.70;;;;;;;-146.27;86.65;82372.13;5029659;28;20029;-69
2023/05/05 01:53:58;;;;;;;7.38;1.70;;;;;;;-146.27;86.29;82360.09;5017955;28;20037;-69
2023/05/05 01:56:25;;;;;;;2.75;1.77;;;;;;;-146.27;87.29;82364.09;5029508;28;20025;-68
2023/05/05 01:58:51;;;;;;;6.07;1.80;;;;;;;-146.27;88.12;82392.22;5021045;28;20397;-67
2023/05/05 02:01:20;;;;;;;3.97;1.85;;;;;;;-146.27;89.66;82388.22;5028788;28;20357;-69
2023/05/05 02:03:47;;;;;;;2.35;1.65;;;;;;;-146.27;88.62;82410.31;5030667;28;20049;-67
2023/05/05 02:06:15;;;;;;;4.20;2.17;;;;;;;-146.27;89.16;82426.38;5030729;28;20100;-70
2023/05/05 02:08:42;;;;;;;3.33;1.90;;;;;;;-146.27;90.28;82414.31;5016562;28;20032;-69
2023/05/05 02:11:10;;;;;;;5.50;1.95;;;;;;;-146.27;90.34;82436.41;5029706;28;20132;-69
2023/05/05 02:13:37;;;;;;;5.53;1.80;;;;;;;-146.27;89.53;82416.31;5012241;28;20108;-69
2023/05/05 02:16:04;;;;;;;4.20;1.70;;;;;;;-146.27;91.02;82470.56;5030136;28;20032;-69
2023/05/05 02:18:34;;;;;;;4.25;2.13;;;;;;;-146.27;90.91;82494.66;5029970;28;20018;-69
2023/05/05 02:21:00;;;;;;;4.28;2.33;;;;;;;-146.27;90.12;82472.56;5028927;28;20399;-70
2023/05/05 02:23:25;;;;;;;6.00;1.80;;;;;;;-146.27;90.50;82484.63;5029717;28;20109;-69
2023/05/05 02:25:55;;;;;;;5.47;2.10;;;;;;;-146.27;91.66;82518.78;5030402;28;20025;-69
2023/05/05 02:28:32;;;;;;;2.83;1.75;;;;;;;-146.27;89.91;82518.78;5019293;28;20040;-67
2023/05/05 02:30:59;;;;;;;5.22;1.90;;;;;;;-146.27;91.58;82548.91;5027590;28;20071;-69
2023/05/05 02:33:28;;;;;;;2.40;1.70;;;;;;;-146.27;91.97;82496.69;5028471;28;20038;-68
2023/05/05 02:35:57;;;;;;;5.65;1.90;;;;;;;-146.27;90.85;82540.88;5028251;28;20084;-69
2023/05/05 02:38:26;;;;;;;3.15;1.80;;;;;;;-146.27;91.49;82536.84;5029489;28;20094;-67
2023/05/05 02:40:55;;;;;;;4.88;1.90;;;;;;;-146.27;91.36;82556.94;5029464;28;20051;-69
2023/05/05 02:43:23;;;;;;;7.82;2.40;;;;;;;-146.27;92.01;82550.91;5029615;28;20100;-67
2023/05/05 02:45:49;;;;;;;6.70;2.20;;;;;;;-146.27;92.51;82579.03;5029867;28;20060;-67
2023/05/05 02:48:14;;;;;;;4.50;2.17;;;;;;;-146.27;92.65;82577.03;5029227;28;20047;-69
2023/05/05 02:50:40;;;;;;;4.15;1.90;;;;;;;-146.27;91.77;82546.91;5029737;28;20598;-69
2023/05/05 02:53:05;;;;;;;6.22;2.60;;;;;;;-146.27;92.72;82528.81;5027875;28;20332;-68
2023/05/05 02:55:50;;;;;;;11.02;2.55;;;;;;;-146.27;93.31;82583.06;5029946;28;20451;-69
2023/05/05 02:58:37;;;;;;;10.80;2.88;;;;;;;-146.27;94.01;82619.22;5030784;28;20076;-70
2023/05/05 03:01:14;;;;;;;5.63;2.83;;;;;;;-146.27;93.75;82573.00;5031391;28;20021;-70
2023/05/05 03:03:47;;;;;;;8.73;3.92;;;;;;;-146.27;94.96;82627.25;5029093;28;20036;-71
2023/05/05 03:06:16;;;;;;;8.63;3.40;;;;;;;-146.27;95.22;82605.16;5033599;28;20033;-71
2023/05/05 03:08:49;;;;;;;9.60;3.58;;;;;;;-146.27;96.15;82631.28;5031293;28;20024;-70
2023/05/05 03:11:26;;;;;;;8.82;3.90;;;;;;;-146.27;96.36;82603.16;5031521;28;20110;-70
2023/05/05 03:14:00;;;;;;;11.80;4.63;;;;;;;-146.27;97.47;82633.28;5031847;28;20043;-70
2023/05/05 03:16:28;;;;;;;11.18;4.43;;;;;;;-146.27;97.06;82637.31;5032788;28;20033;-71
2023/05/05 03:18:57;;;;;;;10.32;4.88;;;;;;;-146.27;98.17;82661.41;5031358;28;20111;-70
2023/05/05 03:21:23;;;;;;;12.18;6.10;;;;;;;-146.27;98.77;82633.28;5031122;28;20021;-70
2023/05/05 03:23:48;;;;;;;12.40;5.30;;;;;;;-146.27;98.62;82677.47;5022937;28;20045;-70
2023/05/05 03:26:17;;;;;;;13.32;5.22;;;;;;;-146.27;98.47;82675.47;5029784;28;20120;-72
2023/05/05 03:28:42;;;;;;;12.02;5.65;;;;;;;-146.27;98.65;82667.44;5032685;28;20461;-70
2023/05/05 03:31:08;;;;;;;10.85;5.28;;;;;;;-146.27;98.23;82649.34;5032387;28;20091;-70
2023/05/05 03:33:33;;;;;;;12.38;5.85;;;;;;;-146.27;98.82;82659.41;5030624;28;20380;-71
2023/05/05 03:35:58;;;;;;;10.77;6.53;;;;;;;-146.27;98.61;82663.41;5029259;28;20515;-71
2023/05/05 03:38:24;;;;;;;11.73;6.57;;;;;;;-146.27;99.29;82677.47;5031694;28;20523;-72
2023/05/05 03:40:49;;;;;;;12.80;7.53;;;;;;;-146.27;100.00;82663.41;5031395;28;20030;-70
2023/05/05 03:43:14;;;;;;;16.17;7.75;;;;;;;-146.27;100.00;82721.69;5032504;28;20032;-71
2023/05/05 03:45:40;;;;;;;15.45;8.48;;;;;;;-146.27;100.00;82719.66;5032138;28;20447;-71
2023/05/05 03:48:05;;;;;;;17.50;10.30;;;;;;;-146.27;100.00;82703.59;5031936;28;20587;-71
2023/05/05 03:50:31;;;;;;;19.98;10.00;;;;;;;-146.27;100.00;82717.66;5030510;28;20064;-71
2023/05/05 03:52:56;;;;;;;17.17;9.55;;;;;;;-146.27;100.00;82709.63;5030597;28;20412;-70
2023/05/05 03:55:22;;;;;;;19.38;10.88;;;;;;;-146.27;100.00;82713.66;5032192;28;20040;-71
2023/05/05 03:57:47;;;;;;;17.00;9.27;;;;;;;-146.27;100.00;82697.56;5031856;28;20025;-71
2023/05/05 04:00:14;;;;;;;18.98;11.00;;;;;;;-146.27;100.00;82729.72;5031435;28;20029;-71
2023/05/05 04:02:39;;;;;;;21.23;11.35;;;;;;;-146.27;100.00;82747.78;5029766;28;20021;-71
2023/05/05 04:05:04;;;;;;;19.00;11.38;;;;;;;-146.27;100.00;82729.72;5029352;28;20455;-71
2023/05/05 04:07:29;;;;;;;25.15;12.75;;;;;;;-146.27;100.00;82741.78;5031471;28;20029;-71
2023/05/05 04:09:55;;;;;;;29.92;14.30;;;;;;;-146.27;100.00;82761.84;5031063;28;20737;-72
2023/05/05 04:12:20;;;;;;;28.17;14.70;;;;;;;-146.27;100.00;82707.63;5029259;28;20044;-71
2023/05/05 04:14:46;;;;;;;31.90;15.52;;;;;;;-146.27;100.00;82759.84;5032652;28;20366;-71
2023/05/05 04:17:11;;;;;;;31.27;16.95;;;;;;;-146.27;100.00;82796.00;5032228;28;20028;-71
2023/05/05 04:19:36;;;;;;;33.22;18.33;;;;;;;-146.27;100.00;82802.03;5030510;28;20412;-70
2023/05/05 04:22:01;;;;;;;36.00;18.33;;;;;;;-146.27;100.00;82832.19;5028239;28;20021;-71
2023/05/05 04:24:27;;;;;;;38.40;20.17;;;;;;;-146.27;100.00;82765.88;5027327;28;20033;-71
2023/05/05 04:26:52;;;;;;;38.72;20.98;;;;;;;-146.27;100.00;82794.00;5031397;28;20025;-68
2023/05/05 04:29:18;;;;;;;38.47;21.30;;;;;;;-146.27;100.00;82794.00;5026515;28;20511;-68
2023/05/05 04:31:44;;;;;;;36.95;22.17;;;;;;;-146.27;100.00;82796.00;5028425;28;20056;-69
2023/05/05 04:34:10;;;;;;;39.20;21.75;;;;;;;-146.27;100.00;82814.09;5030329;28;20033;-68
2023/05/05 04:36:35;;;;;;;40.67;21.55;;;;;;;-146.27;100.00;82789.97;5028540;28;20112;-69
2023/05/05 04:39:00;;;;;;;46.72;22.35;;;;;;;-146.27;100.00;82783.97;5030704;28;20028;-69
2023/05/05 04:41:26;;;;;;;40.35;22.50;;;;;;;-146.27;100.00;82775.91;5029405;28;20033;-69
2023/05/05 04:43:52;;;;;;;41.53;22.25;;;;;;;-146.27;100.00;82792.00;5029347;28;20507;-69
2023/05/05 04:46:17;;;;;;;34.80;21.83;;;;;;;-146.27;100.00;82771.91;5029901;28;20060;-68
2023/05/05 04:48:43;;;;;;;41.58;22.58;;;;;;;-146.27;100.00;82761.84;5030174;28;20021;-70
2023/05/05 04:51:08;;;;;;;41.78;22.38;;;;;;;-146.27;100.00;82751.81;5030873;28;20087;-70
2023/05/05 04:53:33;;;;;;;45.22;22.13;;;;;;;-146.27;100.00;82761.84;5029286;28;20108;-68
2023/05/05 04:56:00;;;;;;;46.60;23.85;;;;;;;-146.27;100.00;82761.84;5029916;28;20095;-70
2023/05/05 04:58:26;;;;;;;43.35;24.15;;;;;;;-146.27;100.00;82787.97;5026469;28;20021;-68
2023/05/05 05:00:51;;;;;;;43.78;22.25;;;;;;;-146.27;100.00;82785.97;5027435;28;20075;-68
2023/05/05 05:03:16;;;;;;;42.03;23.33;;;;;;;-146.27;100.00;82769.91;5024153;28;20544;-69
2023/05/05 05:05:42;;;;;;;45.13;23.63;;;;;;;-146.27;100.00;82765.88;5030071;28;20108;-70
2023/05/05 05:08:07;;;;;;;46.10;23.10;;;;;;;-146.27;100.00;82749.81;5029754;28;20117;-69
2023/05/05 05:10:34;;;;;;;42.75;22.98;;;;;;;-146.27;100.00;82741.78;5030721;28;20104;-70
2023/05/05 05:12:59;;;;;;;36.50;22.17;;;;;;;-146.27;100.00;82741.78;5029413;28;20416;-71
2023/05/05 05:15:25;;;;;;;42.28;23.63;;;;;;;-146.27;100.00;82723.69;5029635;28;20030;-69
2023/05/05 05:17:50;;;;;;;36.25;21.23;;;;;;;-146.27;100.00;82745.78;5030512;28;20473;-68
2023/05/05 05:20:16;;;;;;;37.67;20.70;;;;;;;-146.27;100.00;82701.59;5029721;28;20112;-70
2023/05/05 05:22:41;;;;;;;31.65;20.90;;;;;;;-146.27;100.00;82695.56;5026728;28;20534;-70
2023/05/05 05:25:07;;;;;;;31.63;19.65;;;;;;;-146.27;100.00;82689.53;5030056;28;20091;-67
2023/05/05 05:27:32;;;;;;;43.80;21.30;;;;;;;-146.27;100.00;82665.44;5022230;28;20071;-68
2023/05/05 05:29:57;;;;;;;39.05;20.45;;;;;;;-146.27;100.00;82689.53;5029333;28;20374;-70
2023/05/05 05:32:23;;;;;;;33.92;20.30;;;;;;;-146.27;100.00;82643.31;5028151;28;20161;-68
2023/05/05 05:34:48;;;;;;;36.65;20.30;;;;;;;-146.27;100.00;82645.34;5030031;28;20044;-68
2023/05/05 05:37:14;;;;;;;37.35;19.88;;;;;;;-146.27;100.00;82647.34;5030183;28;20045;-69
2023/05/05 05:39:39;;;;;;;34.42;20.15;;;;;;;-146.27;100.00;82643.31;5029308;28;20048;-69
2023/05/05 05:42:04;;;;;;;34.97;20.60;;;;;;;-146.27;100.00;82623.25;5029947;28;20029;-70
2023/05/05 05:44:30;;;;;;;39.42;19.77;;;;;;;-146.27;100.00;82607.16;5030565;28;20074;-69
2023/05/05 05:46:55;;;;;;;32.70;19.70;;;;;;;-146.27;100.00;82629.28;5029464;28;20102;-70
2023/05/05 05:49:20;;;;;;;30.55;19.05;;;;;;;-146.27;100.00;82593.09;5029617;28;20037;-69
2023/05/05 05:51:46;;;;;;;35.45;19.08;;;;;;;-146.27;100.00;82581.06;5029391;28;20167;-71
2023/05/05 05:54:11;;;;;;;33.42;17.33;;;;;;;-146.27;100.00;82605.16;5028101;28;20025;-68
2023/05/05 05:56:36;;;;;;;31.42;15.98;;;;;;;-146.27;99.96;82599.13;5027688;28;20033;-69
2023/05/05 05:59:03;;;;;;;29.70;16.27;;;;;;;-146.27;99.26;82542.88;5029076;28;20048;-69
2023/05/05 06:01:28;;;;;;;25.92;15.10;;;;;;;-146.27;99.51;82556.94;5023853;28;20029;-68
2023/05/05 06:03:54;;;;;;;21.25;13.75;;;;;;;-146.27;97.64;82544.91;5026338;28;20039;-68
2023/05/05 06:06:19;;;;;;;22.55;14.32;;;;;;;-146.27;97.31;82528.81;5028993;28;20041;-69
2023/05/05 06:08:45;;;;;;;26.65;15.27;;;;;;;-146.27;97.60;82577.03;5018346;28;20509;-68
2023/05/05 06:11:10;;;;;;;22.17;14.30;;;;;;;-146.27;97.48;82536.84;5028596;28;20389;-69
2023/05/05 06:13:35;;;;;;;28.27;15.52;;;;;;;-146.27;97.80;82518.78;5028101;28;20200;-69
2023/05/05 06:16:01;;;;;;;25.00;14.85;;;;;;;-146.27;97.46;82524.81;5029124;28;20476;-71
2023/05/05 06:18:26;;;;;;;26.60;15.30;;;;;;;-146.27;97.43;82498.69;5028314;28;20022;-69
2023/05/05 06:20:52;;;;;;;28.83;16.55;;;;;;;-146.27;97.99;82468.56;5028956;28;20357;-70
2023/05/05 06:23:17;;;;;;;24.27;15.63;;;;;;;-146.27;97.52;82512.75;5028153;28;20027;-70
2023/05/05 06:25:42;;;;;;;25.17;14.43;;;;;;;-146.27;96.92;82466.56;5028321;28;20028;-70
2023/05/05 06:28:08;;;;;;;23.95;14.13;;;;;;;-146.27;96.54;82448.47;5027782;28;20061;-71
2023/05/05 06:30:33;;;;;;;19.23;13.48;;;;;;;-146.27;96.00;82416.31;5027436;28;20100;-72
2023/05/05 06:32:59;;;;;;;22.52;13.52;;;;;;;-146.27;94.14;82392.22;5028035;28;20024;-70
2023/05/05 06:35:24;;;;;;;20.55;12.85;;;;;;;-146.27;93.41;82356.06;5029263;28;20021;-70
2023/05/05 06:37:49;;;;;;;20.95;11.90;;;;;;;-146.27;92.08;82380.16;5031386;28;20033;-71
2023/05/05 06:40:15;;;;;;;22.50;13.35;;;;;;;-146.27;91.96;82374.13;5028250;28;20033;-70
2023/05/05 06:42:40;;;;;;;22.75;13.30;;;;;;;-146.27;92.68;82364.09;5031373;28;20049;-70
2023/05/05 06:45:06;;;;;;;21.02;13.23;;;;;;;-146.27;92.99;82404.28;5029583;28;20672;-70
2023/05/05 06:47:31;;;;;;;26.95;15.05;;;;;;;-146.27;92.64;82291.78;5031061;28;20037;-70
2023/05/05 06:49:57;;;;;;;19.98;10.80;;;;;;;-146.27;90.62;82283.75;5032396;28;20671;-68
2023/05/05 06:52:22;;;;;;;19.75;10.65;;;;;;;-146.27;90.56;82289.78;5031881;28;20025;-70
2023/05/05 06:54:48;;;;;;;19.90;9.23;;;;;;;-146.27;88.30;82259.66;5033371;28;20096;-69
2023/05/05 06:57:13;;;;;;;15.63;9.25;;;;;;;-146.27;88.10;82219.47;5032955;28;20108;-69
2023/05/05 06:59:38;;;;;;;13.75;8.48;;;;;;;-146.27;86.26;82247.59;5032191;28;20523;-70
2023/05/05 07:02:04;;;;;;;15.18;7.55;;;;;;;-146.27;86.29;82187.31;5030777;28;20607;-68
2023/05/05 07:04:29;;;;;;;9.10;5.60;;;;;;;-146.27;85.40;82209.44;5031940;28;20053;-71
2023/05/05 07:06:54;;;;;;;10.45;5.95;;;;;;;-146.27;83.66;82191.34;5030426;28;20049;-70
2023/05/05 07:09:20;;;;;;;9.70;5.25;;;;;;;-146.27;83.01;82183.31;5031647;28;20029;-68
2023/05/05 07:11:46;;;;;;;9.27;5.28;;;;;;;-146.27;82.60;82213.44;5028998;28;20080;-70
2023/05/05 07:14:11;;;;;;;10.02;5.75;;;;;;;-146.27;82.36;82121.03;5032483;28;20076;-68
2023/05/05 07:16:37;;;;;;;9.10;5.07;;;;;;;-146.27;81.15;82159.22;5030030;28;20395;-68
2023/05/05 07:19:06;;;;;;;9.35;5.57;;;;;;;-146.27;81.88;82159.22;5032923;28;20029;-68
2023/05/05 07:21:34;;;;;;;10.48;5.15;;;;;;;-146.27;81.99;82145.16;5032002;28;20021;-70
2023/05/05 07:24:01;;;;;;;8.18;5.28;;;;;;;-146.27;82.43;82145.16;5029258;28;20021;-70
2023/05/05 07:26:26;;;;;;;10.30;5.97;;;;;;;-146.27;82.38;82163.22;5028056;28;20358;-68
2023/05/05 07:28:54;;;;;;;12.02;6.22;;;;;;;-146.27;82.61;82121.03;5031580;28;20083;-70
2023/05/05 07:31:20;;;;;;;11.30;6.25;;;;;;;-146.27;82.88;82127.06;5032682;28;20660;-69
2023/05/05 07:33:46;;;;;;;9.00;5.00;;;;;;;-146.27;81.40;82115.00;5033031;28;20446;-68
2023/05/05 07:36:11;;;;;;;9.98;5.18;;;;;;;-146.27;80.13;82082.88;5030743;28;20037;-66
2023/05/05 07:38:36;;;;;;;9.93;5.32;;;;;;;-146.27;80.85;82078.84;5031223;28;20033;-68
2023/05/05 07:41:02;;;;;;;8.98;5.15;;;;;;;-146.27;80.95;82102.97;5032629;28;20452;-71
2023/05/05 07:43:27;;;;;;;7.53;4.60;;;;;;;-146.27;80.52;82042.69;5031009;28;20020;-68
2023/05/05 07:45:53;;;;;;;8.65;3.67;;;;;;;-146.27;80.04;82054.75;5032030;28;20026;-70
2023/05/05 07:48:18;;;;;;;5.00;3.55;;;;;;;-146.27;78.33;82080.88;5032505;28;20468;-72
2023/05/05 07:50:43;;;;;;;5.05;2.92;;;;;;;-146.27;77.69;82032.66;5032904;28;20075;-69
2023/05/05 07:53:09;;;;;;;5.00;3.00;;;;;;;-146.27;77.25;82026.63;5031427;28;20102;-71
2023/05/05 07:55:34;;;;;;;3.97;2.85;;;;;;;-146.27;75.98;82042.69;5032111;28;20071;-70
2023/05/05 07:57:59;;;;;;;5.88;3.08;;;;;;;-146.27;75.67;82050.75;5032343;28;20030;-70
2023/05/05 08:00:25;;;;;;;5.30;2.80;;;;;;;-146.27;75.62;81996.50;5032050;28;20025;-70
2023/05/05 08:02:50;;;;;;;4.10;2.40;;;;;;;-146.27;74.19;81992.50;5031522;28;20037;-70
2023/05/05 08:05:16;;;;;;;5.60;2.35;;;;;;;-146.27;73.63;82010.56;5031788;28;20025;-71
2023/05/05 08:07:41;;;;;;;3.90;1.90;;;;;;;-146.27;72.56;81980.44;5027907;28;20112;-70
2023/05/05 08:10:10;;;;;;;4.15;2.10;;;;;;;-146.27;71.90;82006.53;5030647;28;20477;-70
2023/05/05 08:12:36;;;;;;;4.10;1.92;;;;;;;-146.27;71.42;82032.66;5031472;28;20115;-70
2023/05/05 08:15:01;;;;;;;3.30;1.63;;;;;;;-146.27;72.00;81966.38;5030494;28;20025;-68
2023/05/05 08:17:27;;;;;;;5.80;2.05;;;;;;;-146.27;70.75;81970.41;5028995;28;20042;-70
2023/05/05 08:19:52;;;;;;;3.63;2.28;;;;;;;-146.27;72.94;81946.28;5030707;28;20033;-69
2023/05/05 08:22:18;;;;;;;7.47;2.92;;;;;;;-146.27;72.19;81976.41;5030757;28;20033;-70
2023/05/05 08:24:43;;;;;;;6.57;2.92;;;;;;;-146.27;72.35;81938.25;5026617;28;20384;-69
2023/05/05 08:27:08;;;;;;;6.35;2.97;;;;;;;-146.27;72.38;81918.16;5024690;28;20029;-69
2023/05/05 08:29:34;;;;;;;5.63;2.67;;;;;;;-146.27;72.30;81873.97;5031544;28;20036;-69
2023/05/05 08:31:59;;;;;;;7.72;2.15;;;;;;;-146.27;70.94;81853.91;5030872;28;20027;-70
2023/05/05 08:34:24;;;;;;;4.22;2.13;;;;;;;-146.27;70.59;81857.91;5030960;28;20545;-70
2023/05/05 08:36:50;;;;;;;4.63;2.17;;;;;;;-146.27;70.70;81942.28;5028885;28;20112;-71
2023/05/05 08:39:15;;;;;;;6.25;2.25;;;;;;;-146.27;70.65;81910.13;5030333;28;20057;-70
2023/05/05 08:41:41;;;;;;;3.45;2.35;;;;;;;-146.27;70.61;81958.34;5029185;28;20052;-71
2023/05/05 08:44:07;;;;;;;4.65;2.00;;;;;;;-146.27;70.55;81992.50;5028193;28;20965;-70
2023/05/05 08:46:35;;;;;;;4.43;1.77;;;;;;;-146.27;69.69;81912.16;5030880;28;20030;-70
2023/05/05 08:49:03;;;;;;;6.70;1.60;;;;;;;-146.27;69.79;81976.41;5030799;28;20128;-69
2023/05/05 08:51:37;;;;;;;3.72;1.60;;;;;;;-146.27;69.98;81954.31;5031062;28;20032;-70
2023/05/05 08:54:05;;;;;;;2.80;1.20;;;;;;;-146.27;70.29;81926.22;5030611;28;20025;-70
2023/05/05 08:56:33;;;;;;;3.53;1.10;;;;;;;-146.27;72.90;81942.28;5029536;28;20584;-71
2023/05/05 08:59:00;;;;;;;1.90;1.00;;;;;;;-146.27;72.82;81974.41;5038521;28;20021;-70
2023/05/05 09:01:26;;;;;;;2.03;0.73;;;;;;;-146.27;72.28;82034.66;5025669;28;20049;-71
2023/05/05 09:03:52;;;;;;;3.03;1.00;;;;;;;-146.27;72.68;82012.56;5031170;28;20071;-69
2023/05/05 09:06:21;;;;;;;2.40;1.00;;;;;;;-146.27;74.50;82042.69;5030959;28;20041;-71
2023/05/05 09:08:50;;;;;;;3.28;1.33;;;;;;;-146.27;75.49;82058.78;5027138;28;20033;-70
2023/05/05 09:11:15;;;;;;;1.85;1.10;;;;;;;-146.27;76.48;82123.06;5029910;28;20026;-69
2023/05/05 09:13:40;;;;;;;1.98;1.10;;;;;;;-146.27;77.34;82121.03;5025151;28;20147;-70
2023/05/05 09:16:06;;;;;;;8.13;1.50;;;;;;;-146.27;78.18;82106.97;5029187;28;20029;-71
2023/05/05 09:18:31;;;;;;;5.22;1.33;;;;;;;-146.27;79.38;82131.09;5037203;28;20021;-71
2023/05/05 09:20:57;;;;;;;6.88;1.25;;;;;;;-146.27;79.01;82117.03;5031077;28;20037;-71
2023/05/05 09:23:23;;;;;;;8.90;1.50;;;;;;;-146.27;78.19;82135.09;5029984;28;20072;-70
2023/05/05 09:26:06;;;;;;;4.50;1.20;;;;;;;-146.27;77.59;82135.09;5029262;28;20065;-71
2023/05/05 09:28:32;;;;;;;;;;;;;;;-146.27;77.64;82171.25;5028637;28;20052;-70
2023/05/05 09:31:18;;;;;;;5.60;1.50;;;;;;;-146.27;77.79;82177.28;5029737;28;19916;-70
2023/05/05 09:33:45;;;;;;;5.70;1.45;;;;;;;-146.27;78.14;82163.22;5028150;28;20056;-71
2023/05/05 09:36:11;;;;;;;3.80;1.35;;;;;;;-146.27;78.07;82157.19;5026678;28;20040;-70
2023/05/05 09:38:36;;;;;;;2.97;1.25;;;;;;;-146.27;79.13;82239.56;5030575;28;20033;-71
2023/05/05 09:41:01;;;;;;;5.00;1.25;;;;;;;-146.27;79.75;82209.44;5028436;28;20091;-70
2023/05/05 09:43:27;;;;;;;3.17;1.27;;;;;;;-146.27;79.36;82191.34;5043741;28;20495;-70
2023/05/05 09:46:05;;;;;;;2.97;1.10;;;;;;;-146.27;79.98;82235.53;5028317;28;20029;-70
2023/05/05 09:48:31;;;;;;;2.85;1.58;;;;;;;-146.27;81.17;82155.19;5036862;28;20368;-70
2023/05/05 09:50:57;;;;;;;3.97;1.45;;;;;;;-146.27;83.63;82175.28;5028244;28;20497;-68
2023/05/05 09:53:24;;;;;;;4.03;1.63;;;;;;;-146.27;85.84;82263.66;5028813;28;20558;-68
2023/05/05 09:55:53;;;;;;;5.70;1.83;;;;;;;-146.27;87.08;82275.72;5027937;28;20477;-69
2023/05/05 09:58:20;;;;;;;3.35;1.90;;;;;;;-146.27;88.32;82299.81;5014304;28;20033;-69
2023/05/05 10:00:46;;;;;;;3.65;2.00;;;;;;;-146.27;89.65;82257.63;5029075;28;20053;-69
2023/05/05 10:03:11;;;;;;;2.95;1.95;;;;;;;-146.27;91.40;82227.50;5026803;28;20068;-68
2023/05/05 10:05:49;;;;;;;6.63;2.95;;;;;;;-146.27;89.26;82261.66;5028260;28;20113;-70
2023/05/05 10:08:15;;;;;;;5.55;2.45;;;;;;;-146.27;91.18;82169.25;5028897;28;20072;-70
2023/05/05 10:10:57;;;;;;;6.25;2.95;;;;;;;-146.27;90.29;82167.25;5033742;28;20032;-70
2023/05/05 10:13:24;;;;;;;7.13;3.42;;;;;;;-146.27;90.22;82163.22;5029413;28;20128;-69
2023/05/05 10:15:54;;;;;;;10.38;3.67;;;;;;;-146.27;88.18;82201.38;5032077;28;20033;-69
2023/05/05 10:18:27;;;;;;;12.68;3.13;;;;;;;-146.27;88.56;82119.03;5032192;28;20030;-70
2023/05/05 10:20:56;;;;;;;4.85;2.97;;;;;;;-146.27;89.53;82181.31;5032495;28;20063;-70
2023/05/05 10:23:26;;;;;;;6.20;3.45;;;;;;;-146.27;90.01;82159.22;5026084;28;20025;-70
2023/05/05 10:26:04;;;;;;;6.95;4.20;;;;;;;-146.27;89.65;82239.56;5032721;28;20056;-71
2023/05/05 10:28:48;;;;;;;10.15;4.15;;;;;;;-146.27;89.32;82169.25;5028788;28;20056;-70
2023/05/05 10:31:32;;;;;;;6.95;4.30;;;;;;;-146.27;89.12;82197.38;5023940;28;20480;-68
2023/05/05 10:34:07;;;;;;;6.00;3.58;;;;;;;-146.27;89.29;82155.19;5031944;28;20671;-71
2023/05/05 10:36:33;;;;;;;6.32;4.10;;;;;;;-146.27;90.07;82165.22;5031984;28;20029;-69
2023/05/05 10:38:59;;;;;;;9.88;4.13;;;;;;;-146.27;90.77;82163.22;5031505;28;20104;-69
2023/05/05 10:41:28;;;;;;;7.07;4.43;;;;;;;-146.27;90.10;82163.22;5027510;28;20492;-69
2023/05/05 10:43:57;;;;;;;7.20;4.20;;;;;;;-146.27;89.12;82201.38;5027751;28;20356;-69
2023/05/05 10:46:25;;;;;;;7.90;4.00;;;;;;;-146.27;89.70;82169.25;5031539;28;20033;-69
2023/05/05 10:49:12;;;;;;;12.60;4.70;;;;;;;-146.27;90.45;82195.38;5030447;28;20029;-69
2023/05/05 10:51:55;;;;;;;11.63;4.82;;;;;;;-146.27;90.79;82185.31;5021860;28;20064;-69
2023/05/05 10:54:31;;;;;;;6.95;4.50;;;;;;;-146.27;92.96;82209.44;5032213;28;20608;-70
2023/05/05 10:57:00;;;;;;;10.70;5.05;;;;;;;-146.27;94.98;82209.44;5032407;28;20115;-69
2023/05/05 10:59:37;;;;;;;9.93;4.93;;;;;;;-146.27;96.53;82179.28;5032601;28;20067;-69
2023/05/05 11:02:20;;;;;;;10.85;4.65;;;;;;;-146.27;96.84;82207.41;5030434;28;20033;-69
2023/05/05 11:05:08;;;;;;;14.32;4.68;;;;;;;-146.27;95.61;82313.88;5034358;28;20053;-69
2023/05/05 11:07:35;;;;;;;10.75;4.60;;;;;;;-146.27;96.52;82287.75;5040210;28;20036;-69
2023/05/05 11:10:03;;;;;;;9.00;5.18;;;;;;;-146.27;97.81;82313.88;5031892;28;20029;-68
2023/05/05 11:12:29;;;;;;;9.65;5.13;;;;;;;-146.27;99.05;82311.88;5032842;28;20120;-69
2023/05/05 11:15:22;;;;;;;10.63;5.78;;;;;;;-146.27;100.00;82283.75;5032680;28;20033;-68